Rombauer, Missouri
Current Conditions -  °F | °C
As of 9:53 PM on Sunday 23 Nov 2014 (Local Time) from KPOF Reporting Station
Overcast Overcast  
Wind Chill: 58°   Ceiling: 800
Heat Index: 58°   Visibility: 10mi
Dew Point: 56°   Wind: 9mph
Humidity: 93%   Direction: 200°SSW
Pressure: 29.32"   Gusts: NA
Location:  36.84°N, 90.28°W
Report Text: KPOF 240353Z AUTO 20008KT 10SM OVC008 14/13 A2932 RMK AO2 CIG 005V011 SLP928 T01440133
Loading
Personal Weather Stations






























Interactive Weather Map New forecast layout! Learn more

10-Day Weather Forecast

Advertisements
Track Severe Weather on mobile